createdAt,value
2019-02-12T00:01:08.220Z,64.90
2019-02-12T00:03:37.374Z,64.80
2019-02-12T00:06:05.284Z,64.30
2019-02-12T00:08:33.158Z,63.90
2019-02-12T00:11:01.093Z,64.10
2019-02-12T00:13:29.023Z,64.40
2019-02-12T00:15:56.905Z,64.60
2019-02-12T00:18:24.768Z,64.70
2019-02-12T00:20:52.752Z,64.90
2019-02-12T00:23:20.649Z,64.80
2019-02-12T00:25:48.568Z,64.70
2019-02-12T00:28:16.432Z,64.50
2019-02-12T00:30:44.620Z,64.40
2019-02-12T00:33:12.527Z,65.20
2019-02-12T00:35:40.342Z,64.40
2019-02-12T00:38:08.500Z,64.60
2019-02-12T00:40:36.401Z,64.80
2019-02-12T00:43:04.267Z,64.80
2019-02-12T00:45:32.132Z,64.50
2019-02-12T00:48:00.457Z,64.30
2019-02-12T00:50:28.374Z,64.30
2019-02-12T00:52:59.176Z,64.30
2019-02-12T00:55:27.045Z,64.50
2019-02-12T00:57:54.953Z,64.60
2019-02-12T01:00:22.792Z,65.30
2019-02-12T01:02:50.642Z,65.90
2019-02-12T01:05:18.887Z,66.80
2019-02-12T01:07:46.748Z,66.50
2019-02-12T01:10:14.595Z,66.70
2019-02-12T01:12:42.461Z,67.20
2019-02-12T01:15:11.917Z,67.70
2019-02-12T01:17:39.774Z,68.10
2019-02-12T01:20:10.612Z,68.00
2019-02-12T01:22:39.686Z,68.30
2019-02-12T01:25:08.356Z,68.30
2019-02-12T01:27:38.057Z,68.30
2019-02-12T01:30:10.902Z,68.30
2019-02-12T01:32:39.335Z,68.20
2019-02-12T01:35:07.348Z,68.30
2019-02-12T01:37:35.272Z,68.30
2019-02-12T01:40:03.367Z,68.30
2019-02-12T01:42:31.268Z,68.50
2019-02-12T01:44:59.099Z,68.20
2019-02-12T01:47:26.970Z,68.30
2019-02-12T01:49:54.896Z,68.20
2019-02-12T01:52:22.749Z,68.20
2019-02-12T01:54:50.632Z,68.20
2019-02-12T01:57:21.911Z,68.20
2019-02-12T01:59:49.790Z,68.50
2019-02-12T02:02:17.746Z,68.20
2019-02-12T02:04:45.645Z,68.20
2019-02-12T02:07:16.563Z,67.90
2019-02-12T02:09:44.461Z,67.60
2019-02-12T02:12:12.321Z,67.20
2019-02-12T02:14:41.085Z,67.20
2019-02-12T02:17:09.262Z,67.10
2019-02-12T02:19:40.156Z,67.30
2019-02-12T02:22:08.149Z,66.80
2019-02-12T02:24:35.985Z,66.70
2019-02-12T02:27:03.971Z,67.10
2019-02-12T02:29:31.800Z,67.30
2019-02-12T02:31:59.665Z,67.30
2019-02-12T02:34:27.514Z,67.30
2019-02-12T02:36:55.407Z,67.10
2019-02-12T02:39:23.296Z,66.90
2019-02-12T02:41:51.211Z,67.00
2019-02-12T02:44:19.052Z,67.40
2019-02-12T02:46:46.957Z,67.20
2019-02-12T02:49:14.842Z,67.20
2019-02-12T02:51:42.693Z,67.00
2019-02-12T02:54:10.543Z,67.20
2019-02-12T02:56:38.521Z,67.40
2019-02-12T02:59:06.432Z,67.40
2019-02-12T03:01:34.286Z,67.00
2019-02-12T03:04:02.228Z,66.80
2019-02-12T03:06:30.068Z,66.80
2019-02-12T03:08:58.079Z,67.20
2019-02-12T03:11:25.964Z,67.10
2019-02-12T03:13:53.837Z,67.20
2019-02-12T03:16:21.667Z,66.90
2019-02-12T03:18:49.567Z,67.10
2019-02-12T03:21:17.412Z,67.30
2019-02-12T03:23:45.328Z,66.80
2019-02-12T03:26:13.211Z,67.00
2019-02-12T03:28:41.073Z,66.60
2019-02-12T03:31:08.957Z,66.70
2019-02-12T03:33:36.861Z,66.50
2019-02-12T03:36:04.674Z,66.70
2019-02-12T03:38:32.528Z,66.70
2019-02-12T03:41:00.817Z,67.00
2019-02-12T03:43:28.660Z,66.50
2019-02-12T03:45:56.536Z,66.20
2019-02-12T03:48:24.397Z,66.30
2019-02-12T03:50:52.235Z,66.70
2019-02-12T03:53:20.126Z,66.70
2019-02-12T03:55:47.990Z,66.90
2019-02-12T03:58:16.028Z,67.00
2019-02-12T04:00:43.966Z,67.10
2019-02-12T04:03:11.884Z,67.30
2019-02-12T04:05:39.959Z,67.70
2019-02-12T04:08:08.143Z,67.70
2019-02-12T04:10:36.042Z,67.20
2019-02-12T04:13:04.042Z,67.10
2019-02-12T04:15:31.981Z,67.10
2019-02-12T04:17:59.881Z,67.00
2019-02-12T04:20:27.790Z,66.10
2019-02-12T04:22:55.714Z,66.70
2019-02-12T04:25:26.044Z,66.40
2019-02-12T04:27:55.423Z,66.50
2019-02-12T04:30:23.593Z,65.90
2019-02-12T04:32:51.441Z,65.70
2019-02-12T04:35:19.702Z,65.90
2019-02-12T04:37:47.574Z,65.40
2019-02-12T04:40:15.442Z,65.50
2019-02-12T04:42:47.685Z,65.40
2019-02-12T04:45:15.571Z,65.50
2019-02-12T04:47:43.385Z,65.20
2019-02-12T04:50:12.011Z,65.40
2019-02-12T04:52:39.893Z,65.30
2019-02-12T04:55:09.556Z,65.30
2019-02-12T04:57:37.430Z,65.60
2019-02-12T05:00:08.274Z,65.50
2019-02-12T05:02:36.205Z,65.60
2019-02-12T05:05:04.837Z,65.70
2019-02-12T05:07:32.676Z,65.60
2019-02-12T05:10:00.806Z,65.70
2019-02-12T05:12:29.113Z,65.30
2019-02-12T05:14:57.008Z,65.20
2019-02-12T05:17:24.914Z,65.40
2019-02-12T05:19:53.077Z,65.30
2019-02-12T05:22:20.926Z,65.10
2019-02-12T05:24:48.785Z,65.40
2019-02-12T05:27:16.725Z,65.40
2019-02-12T05:29:46.321Z,64.80
2019-02-12T05:32:14.169Z,64.40
2019-02-12T05:34:42.051Z,64.90
2019-02-12T05:37:09.918Z,64.80
2019-02-12T05:39:37.814Z,65.00
2019-02-12T05:42:05.744Z,64.80
2019-02-12T05:44:37.081Z,65.40
2019-02-12T05:47:07.103Z,66.80
2019-02-12T05:49:34.995Z,67.00
2019-02-12T05:52:02.805Z,67.50
2019-02-12T05:54:32.486Z,68.10
2019-02-12T05:57:00.818Z,68.60
2019-02-12T05:59:28.727Z,68.00
2019-02-12T06:01:56.623Z,68.00
2019-02-12T06:04:24.488Z,68.00
2019-02-12T06:06:54.235Z,68.00
2019-02-12T06:09:22.189Z,68.10
2019-02-12T06:11:50.097Z,68.10
2019-02-12T06:14:17.985Z,67.60
2019-02-12T06:16:45.846Z,67.20
2019-02-12T06:19:13.707Z,67.00
2019-02-12T06:21:41.596Z,66.80
2019-02-12T06:24:09.463Z,66.70
2019-02-12T06:26:37.554Z,66.40
2019-02-12T06:29:05.463Z,65.80
2019-02-12T06:31:35.865Z,65.70
2019-02-12T06:34:04.112Z,65.50
2019-02-12T06:36:31.940Z,65.20
2019-02-12T06:38:59.843Z,64.70
2019-02-12T06:41:27.786Z,64.20
2019-02-12T06:43:55.625Z,63.60
2019-02-12T06:46:23.653Z,63.10
2019-02-12T06:48:54.580Z,62.80
2019-02-12T06:51:22.459Z,62.70
2019-02-12T06:53:50.348Z,62.80
2019-02-12T06:56:18.570Z,62.70
2019-02-12T06:58:46.418Z,62.90
2019-02-12T07:01:14.298Z,62.30
2019-02-12T07:03:54.584Z,61.60
2019-02-12T07:07:04.779Z,61.10
2019-02-12T07:10:02.788Z,60.70
2019-02-12T07:13:32.112Z,61.50
2019-02-12T07:16:29.247Z,60.80
2019-02-12T07:19:52.180Z,60.80
2019-02-12T07:23:35.054Z,60.80
2019-02-12T07:27:05.377Z,60.40
2019-02-12T07:30:29.833Z,59.80
2019-02-12T07:34:06.463Z,59.40
2019-02-12T07:37:53.639Z,58.30
2019-02-12T07:41:20.159Z,58.20
2019-02-12T07:45:02.298Z,58.30
2019-02-12T07:48:39.280Z,57.80
2019-02-12T07:52:14.969Z,57.60
2019-02-12T07:55:28.983Z,56.80
2019-02-12T07:58:58.954Z,54.00
2019-02-12T08:02:24.093Z,51.70
2019-02-12T08:05:57.987Z,51.40
2019-02-12T08:09:21.056Z,50.60
2019-02-12T08:12:55.254Z,49.00
2019-02-12T08:15:53.840Z,46.00
2019-02-12T08:19:10.372Z,43.00
2019-02-12T08:22:32.421Z,40.10
2019-02-12T08:26:00.664Z,37.90
2019-02-12T08:29:41.910Z,40.90
2019-02-12T08:32:40.753Z,42.00
2019-02-12T08:35:57.110Z,43.20
2019-02-12T08:38:42.827Z,45.20
2019-02-12T08:42:24.138Z,45.00
2019-02-12T08:45:54.293Z,45.50
2019-02-12T08:49:01.207Z,45.00
2019-02-12T08:52:35.386Z,45.80
2019-02-12T08:55:54.022Z,46.10
2019-02-12T08:58:54.390Z,47.60
2019-02-12T09:02:20.167Z,47.60
2019-02-12T09:05:23.816Z,47.70
2019-02-12T09:08:18.565Z,46.70
2019-02-12T09:11:19.506Z,46.70
2019-02-12T09:15:03.188Z,46.60
2019-02-12T09:18:31.931Z,46.90
2019-02-12T09:21:59.615Z,47.80
2019-02-12T09:25:04.553Z,47.90
2019-02-12T09:27:50.729Z,47.40
2019-02-12T09:31:17.404Z,47.20
2019-02-12T09:34:19.994Z,46.90
2019-02-12T09:37:55.640Z,45.40
2019-02-12T09:41:18.527Z,45.00
2019-02-12T09:44:59.991Z,44.50
2019-02-12T09:48:14.112Z,45.30
2019-02-12T09:51:22.792Z,47.30
2019-02-12T09:54:56.563Z,45.90
2019-02-12T09:58:34.462Z,45.40
2019-02-12T10:01:50.638Z,45.60
2019-02-12T10:05:13.609Z,45.80
2019-02-12T10:08:39.972Z,46.70
2019-02-12T10:12:10.989Z,47.30
2019-02-12T10:15:41.689Z,45.70
2019-02-12T10:18:51.661Z,43.50
2019-02-12T10:22:23.689Z,40.90
2019-02-12T10:25:31.751Z,38.00
2019-02-12T10:28:48.679Z,39.10
2019-02-12T10:31:40.741Z,37.90
2019-02-12T10:34:09.025Z,39.70
2019-02-12T10:36:36.853Z,42.10
2019-02-12T10:39:08.218Z,41.80
2019-02-12T10:41:36.134Z,42.10
2019-02-12T10:44:04.077Z,41.60
2019-02-12T10:46:31.991Z,43.20
2019-02-12T10:48:59.929Z,43.10
2019-02-12T10:51:27.797Z,44.00
2019-02-12T10:53:55.724Z,45.20
2019-02-12T10:56:23.605Z,45.70
2019-02-12T10:58:51.461Z,44.90
2019-02-12T11:01:19.325Z,45.10
2019-02-12T11:03:48.515Z,46.30
2019-02-12T11:06:18.553Z,46.90
2019-02-12T11:08:46.517Z,47.70
2019-02-12T11:11:14.569Z,47.50
2019-02-12T11:13:42.417Z,45.00
2019-02-12T11:16:10.407Z,39.10
2019-02-12T11:18:38.287Z,33.50
2019-02-12T11:21:11.677Z,31.20
2019-02-12T11:23:36.475Z,29.40
2019-02-12T11:26:04.552Z,32.10
2019-02-12T11:28:33.649Z,34.30
2019-02-12T11:31:01.598Z,36.80
2019-02-12T11:33:29.436Z,40.40
2019-02-12T11:35:57.378Z,41.20
2019-02-12T11:38:25.322Z,42.50
2019-02-12T11:40:53.195Z,44.00
2019-02-12T11:43:21.092Z,45.70
2019-02-12T11:45:49.074Z,45.50
2019-02-12T11:48:17.983Z,45.40
2019-02-12T11:50:45.980Z,45.40
2019-02-12T11:53:13.816Z,45.80
2019-02-12T11:55:41.677Z,46.00
2019-02-12T11:58:09.559Z,46.20
2019-02-12T12:00:45.285Z,46.20
2019-02-12T12:03:13.141Z,46.20
2019-02-12T12:05:42.030Z,45.00
2019-02-12T12:08:09.962Z,40.60
2019-02-12T12:10:39.472Z,39.50
2019-02-12T12:13:09.211Z,41.70
2019-02-12T12:15:37.208Z,41.80
2019-02-12T12:18:05.215Z,42.50
2019-02-12T12:20:35.163Z,44.90
2019-02-12T12:23:02.994Z,45.10
2019-02-12T12:25:30.891Z,44.80
2019-02-12T12:28:01.149Z,45.20
2019-02-12T12:30:29.005Z,45.80
2019-02-12T12:32:56.967Z,44.40
2019-02-12T12:35:24.781Z,43.50
2019-02-12T12:37:52.633Z,42.30
2019-02-12T12:40:20.996Z,41.30
2019-02-12T12:42:48.919Z,42.20
2019-02-12T12:45:16.924Z,42.20
2019-02-12T12:47:44.793Z,41.80
2019-02-12T12:50:12.694Z,42.00
2019-02-12T12:52:43.065Z,42.60
2019-02-12T12:55:12.850Z,41.60
2019-02-12T12:57:42.164Z,41.60
2019-02-12T13:00:11.197Z,39.90
2019-02-12T13:02:39.165Z,39.90
2019-02-12T13:05:11.978Z,39.20
2019-02-12T13:07:39.883Z,40.40
2019-02-12T13:10:10.637Z,39.80
2019-02-12T13:12:38.747Z,41.20
2019-02-12T13:15:08.687Z,41.10
2019-02-12T13:17:36.535Z,40.00
2019-02-12T13:20:06.682Z,39.40
2019-02-12T13:22:34.516Z,40.10
2019-02-12T13:25:08.314Z,39.90
2019-02-12T13:27:35.094Z,39.30
2019-02-12T13:30:03.723Z,39.00
2019-02-12T13:32:31.623Z,39.80
2019-02-12T13:34:59.703Z,37.60
2019-02-12T13:37:27.629Z,36.40
2019-02-12T13:39:55.523Z,36.90
2019-02-12T13:42:25.927Z,38.30
2019-02-12T13:44:53.844Z,37.90
2019-02-12T13:47:23.543Z,37.30
2019-02-12T13:49:51.400Z,36.50
2019-02-12T13:52:19.287Z,37.30
2019-02-12T13:54:47.198Z,36.10
2019-02-12T13:57:15.131Z,36.40
2019-02-12T13:59:43.020Z,36.70
2019-02-12T14:02:11.057Z,37.40
2019-02-12T14:04:38.971Z,36.20
2019-02-12T14:07:06.823Z,36.90
2019-02-12T14:09:34.667Z,38.30
2019-02-12T14:12:03.051Z,36.10
2019-02-12T14:14:31.006Z,34.60
2019-02-12T14:17:00.206Z,35.30
2019-02-12T14:19:28.084Z,36.20
2019-02-12T14:21:56.028Z,36.30
2019-02-12T14:24:24.019Z,36.80
2019-02-12T14:26:51.946Z,37.20
2019-02-12T14:29:19.933Z,36.00
2019-02-12T14:34:24.603Z,34.70
2019-02-12T14:36:52.479Z,34.60
2019-02-12T14:39:20.401Z,34.30
2019-02-12T14:41:48.325Z,35.30
2019-02-12T14:44:18.522Z,34.70
2019-02-12T14:46:46.431Z,35.30
2019-02-12T14:49:16.483Z,34.30
2019-02-12T14:51:44.386Z,33.90
2019-02-12T14:54:12.545Z,33.90
2019-02-12T14:56:40.554Z,33.60
2019-02-12T14:59:08.418Z,34.10
2019-02-12T15:01:36.323Z,34.10
2019-02-12T15:04:04.191Z,33.80
2019-02-12T15:06:32.038Z,34.60
2019-02-12T15:08:59.965Z,34.90
2019-02-12T15:11:27.875Z,35.20
2019-02-12T15:13:55.816Z,35.90
2019-02-12T15:16:24.835Z,36.10
2019-02-12T15:18:52.669Z,36.00
2019-02-12T15:21:20.616Z,36.10
2019-02-12T15:23:48.773Z,36.20
2019-02-12T15:26:19.126Z,36.10
2019-02-12T15:28:47.127Z,36.40
2019-02-12T15:31:15.083Z,36.30
2019-02-12T15:33:43.020Z,37.70
2019-02-12T15:36:11.196Z,38.20
2019-02-12T15:38:40.223Z,37.70
2019-02-12T15:41:08.118Z,38.20
2019-02-12T15:43:35.976Z,39.10
2019-02-12T15:46:04.072Z,39.70
2019-02-12T15:48:32.312Z,40.10
2019-02-12T15:51:00.211Z,40.00
2019-02-12T15:53:29.636Z,38.90
2019-02-12T15:56:01.631Z,38.60
2019-02-12T15:58:30.633Z,40.10
2019-02-12T16:00:58.599Z,40.50
2019-02-12T16:03:26.476Z,40.60
2019-02-12T16:05:55.138Z,40.50
2019-02-12T16:08:26.013Z,40.50
2019-02-12T16:10:55.166Z,40.40
2019-02-12T16:13:23.715Z,40.30
2019-02-12T16:15:51.603Z,41.20
2019-02-12T16:18:21.370Z,41.50
2019-02-12T16:20:49.628Z,41.90
2019-02-12T16:23:17.567Z,42.00
2019-02-12T16:25:45.605Z,41.90
2019-02-12T16:28:13.780Z,42.10
2019-02-12T16:30:41.961Z,42.40
2019-02-12T16:33:09.836Z,42.50
2019-02-12T16:35:37.760Z,42.50
2019-02-12T16:38:07.350Z,43.20
2019-02-12T16:40:35.297Z,43.20
2019-02-12T16:43:03.465Z,43.70
2019-02-12T16:45:37.869Z,43.60
2019-02-12T16:48:07.186Z,43.90
2019-02-12T16:50:40.692Z,44.10
2019-02-12T16:53:28.946Z,43.10
2019-02-12T16:55:57.627Z,42.70
2019-02-12T16:58:26.105Z,44.00
2019-02-12T17:01:02.226Z,44.70
2019-02-12T17:03:33.635Z,43.00
2019-02-12T17:06:02.577Z,43.00
2019-02-12T17:08:30.841Z,42.20
2019-02-12T17:11:01.772Z,43.10
2019-02-12T17:13:34.896Z,44.20
2019-02-12T17:16:04.579Z,44.60
2019-02-12T17:18:36.406Z,44.10
2019-02-12T17:21:07.315Z,44.40
2019-02-12T17:23:35.449Z,46.10
2019-02-12T17:26:03.489Z,46.20
2019-02-12T17:28:31.372Z,47.10
2019-02-12T17:30:59.332Z,48.00
2019-02-12T17:33:27.339Z,48.10
2019-02-12T17:35:58.775Z,47.70
2019-02-12T17:38:26.677Z,48.10
2019-02-12T17:40:54.602Z,47.50
2019-02-12T17:43:22.816Z,45.50
2019-02-12T17:45:50.680Z,45.00
2019-02-12T17:48:18.930Z,44.80
2019-02-12T17:50:49.543Z,44.50
2019-02-12T17:53:17.509Z,46.20
2019-02-12T17:55:45.410Z,47.40
2019-02-12T17:58:13.331Z,48.30
2019-02-12T18:00:45.010Z,48.30
2019-02-12T18:03:14.126Z,48.20
2019-02-12T18:05:42.099Z,48.80
2019-02-12T18:08:10.071Z,48.80
2019-02-12T18:10:38.071Z,48.00
2019-02-12T18:13:06.379Z,47.60
2019-02-12T18:15:35.855Z,46.60
2019-02-12T18:18:03.745Z,46.20
2019-02-12T18:20:31.696Z,46.40
2019-02-12T18:23:02.230Z,46.50
2019-02-12T18:25:33.082Z,46.90
2019-02-12T18:28:03.089Z,47.00
2019-02-12T18:30:31.105Z,46.80
2019-02-12T18:32:58.977Z,47.80
2019-02-12T18:35:26.925Z,48.50
2019-02-12T18:38:00.244Z,48.60
2019-02-12T18:40:28.165Z,49.50
2019-02-12T18:42:56.135Z,48.60
2019-02-12T18:45:24.638Z,48.10
2019-02-12T18:47:52.543Z,47.50
2019-02-12T18:50:20.606Z,48.50
2019-02-12T18:52:48.493Z,49.80
2019-02-12T18:55:16.419Z,48.60
2019-02-12T18:57:44.396Z,48.60
2019-02-12T19:00:16.159Z,48.70
2019-02-12T19:02:44.244Z,48.60
2019-02-12T19:05:12.371Z,50.00
2019-02-12T19:07:40.284Z,50.80
2019-02-12T19:10:09.550Z,51.10
2019-02-12T19:12:37.548Z,51.50
2019-02-12T19:15:07.569Z,51.30
2019-02-12T19:17:35.501Z,50.10
2019-02-12T19:20:04.309Z,50.30
2019-02-12T19:22:32.214Z,50.70
2019-02-12T19:25:00.304Z,50.10
2019-02-12T19:27:28.355Z,49.30
2019-02-12T19:29:59.376Z,49.90
2019-02-12T19:32:27.369Z,50.30
2019-02-12T19:34:56.307Z,50.60
2019-02-12T19:37:24.266Z,50.70
2019-02-12T19:40:00.281Z,51.10
2019-02-12T19:42:29.690Z,51.80
2019-02-12T19:45:00.021Z,51.60
2019-02-12T19:47:30.285Z,52.00
2019-02-12T19:49:58.211Z,51.20
2019-02-12T19:52:26.134Z,51.40
2019-02-12T19:54:54.056Z,51.80
2019-02-12T19:57:21.978Z,52.10
2019-02-12T19:59:49.875Z,53.00
2019-02-12T20:02:17.827Z,53.80
2019-02-12T20:04:45.756Z,52.40
2019-02-12T20:07:13.771Z,52.40
2019-02-12T20:09:41.715Z,53.10
2019-02-12T20:12:09.598Z,52.30
2019-02-12T20:14:37.935Z,51.40
2019-02-12T20:17:06.204Z,51.60
2019-02-12T20:19:34.510Z,51.60
2019-02-12T20:22:04.777Z,51.90
2019-02-12T20:24:32.804Z,51.70
2019-02-12T20:27:06.459Z,52.40
2019-02-12T20:29:30.612Z,51.90
2019-02-12T20:31:58.491Z,51.20
2019-02-12T20:34:29.534Z,51.30
2019-02-12T20:36:59.013Z,51.20
2019-02-12T20:39:27.082Z,51.30
2019-02-12T20:41:54.989Z,52.20
2019-02-12T20:44:22.953Z,52.70
2019-02-12T20:46:50.807Z,52.50
2019-02-12T20:49:19.022Z,52.90
2019-02-12T20:51:47.195Z,53.20
2019-02-12T20:54:15.129Z,53.90
2019-02-12T20:56:44.131Z,53.20
2019-02-12T20:59:12.090Z,52.30
2019-02-12T21:01:40.060Z,53.00
2019-02-12T21:04:07.945Z,52.60
2019-02-12T21:06:35.898Z,52.80
2019-02-12T21:09:05.743Z,53.20
2019-02-12T21:11:33.854Z,52.80
2019-02-12T21:14:07.133Z,53.00
2019-02-12T21:16:35.122Z,52.90
2019-02-12T21:19:03.048Z,52.90
2019-02-12T21:21:30.936Z,53.10
2019-02-12T21:23:58.994Z,52.60
2019-02-12T21:26:26.973Z,53.90
2019-02-12T21:28:54.896Z,53.50
2019-02-12T21:31:22.941Z,54.00
2019-02-12T21:33:50.943Z,53.70
2019-02-12T21:36:18.793Z,52.50
2019-02-12T21:38:49.798Z,52.20
2019-02-12T21:41:17.686Z,52.80
2019-02-12T21:43:45.816Z,53.00
2019-02-12T21:46:13.799Z,52.80
2019-02-12T21:48:43.198Z,52.80
2019-02-12T21:51:12.439Z,53.30
2019-02-12T21:53:40.465Z,54.10
2019-02-12T21:56:08.757Z,54.20
2019-02-12T21:58:36.626Z,53.50
2019-02-12T22:01:04.490Z,52.50
2019-02-12T22:03:32.397Z,53.40
2019-02-12T22:06:01.355Z,53.50
2019-02-12T22:08:29.316Z,52.50
2019-02-12T22:10:57.216Z,52.10
2019-02-12T22:13:25.112Z,52.40
2019-02-12T22:15:53.094Z,53.30
2019-02-12T22:18:23.897Z,53.40
2019-02-12T22:20:51.775Z,53.50
2019-02-12T22:23:19.643Z,53.90
2019-02-12T22:25:47.489Z,54.00
2019-02-12T22:28:15.379Z,54.30
2019-02-12T22:30:43.228Z,54.50
2019-02-12T22:33:11.247Z,53.70
2019-02-12T22:35:39.105Z,53.50
2019-02-12T22:38:06.976Z,53.70
2019-02-12T22:40:34.871Z,53.60
2019-02-12T22:43:05.603Z,54.00
2019-02-12T22:45:33.550Z,54.40
2019-02-12T22:48:01.411Z,53.60
2019-02-12T22:50:29.297Z,53.50
2019-02-12T22:52:57.212Z,52.90
2019-02-12T22:55:25.332Z,53.20
2019-02-12T22:57:53.232Z,53.40
2019-02-12T23:00:46.411Z,54.00
2019-02-12T23:03:14.339Z,53.20
2019-02-12T23:05:42.261Z,53.30
2019-02-12T23:08:10.114Z,53.80
2019-02-12T23:10:38.100Z,54.20
2019-02-12T23:13:06.104Z,53.50
2019-02-12T23:15:34.075Z,53.50
2019-02-12T23:18:02.067Z,54.00
2019-02-12T23:20:29.975Z,53.70
2019-02-12T23:22:57.839Z,53.70
2019-02-12T23:25:25.775Z,53.60
2019-02-12T23:27:57.772Z,53.50
2019-02-12T23:30:25.019Z,53.80
2019-02-12T23:32:53.223Z,53.50
2019-02-12T23:35:21.197Z,53.70
2019-02-12T23:37:49.083Z,53.90
2019-02-12T23:40:17.152Z,53.60
2019-02-12T23:42:45.058Z,53.30
2019-02-12T23:45:13.312Z,52.80
2019-02-12T23:47:41.177Z,52.60
2019-02-12T23:50:11.172Z,52.50
2019-02-12T23:52:39.026Z,52.60
2019-02-12T23:55:07.036Z,52.40
2019-02-12T23:57:34.890Z,52.70
